Time;durP1;ratioP1;P1;durP2;ratioP2;P2;SDS_P1;SDS_P2;PMS_P1;PMS_P2;Temp;Humidity;BMP_temperature;BMP_pressure;BME280_temperature;BME280_humidity;BME280_pressure;Samples;Min_cycle;Max_cycle;Signal;HPM_P1;HPM_P2
2023/08/26 00:01:28;;;;;;;;;;;;;;;27.15;43.63;98704.25;5010101;28;19921;-74
2023/08/26 00:03:53;;;;;;;;;;;;;;;27.14;44.06;98708.00;4994817;28;20012;-74
2023/08/26 00:06:18;;;;;;;;;;;;;;;27.16;43.73;98714.75;5009838;28;20067;-74
2023/08/26 00:08:44;;;;;;;;;;;;;;;27.15;43.87;98714.97;5010059;28;19913;-74
2023/08/26 00:11:09;;;;;;;;;;;;;;;27.05;43.56;98716.31;5009850;28;20003;-74
2023/08/26 00:13:34;;;;;;;;;;;;;;;26.98;44.26;98712.09;4993233;28;19917;-75
2023/08/26 00:16:00;;;;;;;;;;;;;;;26.94;43.73;98716.28;4993397;28;19953;-74
2023/08/26 00:18:25;;;;;;;;;;;;;;;26.93;43.75;98715.47;4994822;28;19918;-74
2023/08/26 00:20:52;;;;;;;;;;;;;;;26.90;44.16;98706.00;5009781;28;20388;-74
2023/08/26 00:23:17;;;;;;;;;;;;;;;26.88;43.99;98707.25;4994548;28;19918;-75
2023/08/26 00:25:42;;;;;;;;;;;;;;;26.81;44.28;98706.53;5009577;28;19913;-74
2023/08/26 00:28:07;;;;;;;;;;;;;;;26.75;44.65;98696.72;5009589;28;20340;-74
2023/08/26 00:30:33;;;;;;;;;;;;;;;26.66;44.56;98698.84;5009682;28;19918;-73
2023/08/26 00:32:59;;;;;;;;;;;;;;;26.64;44.46;98698.25;4992997;28;19937;-73
2023/08/26 00:35:24;;;;;;;;;;;;;;;26.62;44.47;98701.13;4994372;28;20448;-72
2023/08/26 00:37:51;;;;;;;;;;;;;;;26.57;44.63;98703.66;4991925;28;20008;-75
2023/08/26 00:40:16;;;;;;;;;;;;;;;26.55;44.21;98700.38;4994263;28;19918;-74
2023/08/26 00:42:42;;;;;;;;;;;;;;;26.54;44.17;98693.41;4994018;28;19913;-74
2023/08/26 00:45:07;;;;;;;;;;;;;;;26.50;44.32;98695.72;4992778;28;19914;-73
2023/08/26 00:47:32;;;;;;;;;;;;;;;26.48;44.41;98700.44;5009295;28;19914;-74
2023/08/26 00:49:58;;;;;;;;;;;;;;;26.51;44.32;98700.00;5009298;28;19925;-73
2023/08/26 00:52:23;;;;;;;;;;;;;;;26.49;44.32;98695.94;4992566;28;19913;-73
2023/08/26 00:54:48;;;;;;;;;;;;;;;26.51;45.04;98700.00;4993024;28;19920;-73
2023/08/26 00:57:14;;;;;;;;;;;;;;;26.50;44.76;98700.22;5008896;28;20401;-73
2023/08/26 00:59:39;;;;;;;;;;;;;;;26.47;45.23;98698.00;5008852;28;19913;-73
2023/08/26 01:02:04;;;;;;;;;;;;;;;26.40;44.69;98691.91;5009012;28;20012;-73
2023/08/26 01:04:30;;;;;;;;;;;;;;;26.35;45.20;98687.22;4992527;28;20025;-73
2023/08/26 01:06:55;;;;;;;;;;;;;;;26.31;45.21;98691.34;5008619;28;19922;-74
2023/08/26 01:09:21;;;;;;;;;;;;;;;26.35;45.00;98687.22;4993589;28;19913;-73
2023/08/26 01:12:06;;;;;;;;;;;;;;;26.30;44.80;98685.19;5008721;28;19913;-74
2023/08/26 01:14:34;;;;;;;;;;;;;;;26.26;44.96;98686.66;4993265;28;19918;-73
2023/08/26 01:16:59;;;;;;;;;;;;;;;26.28;45.04;98678.41;5008644;28;19914;-73
2023/08/26 01:19:33;;;;;;;;;;;;;;;26.26;44.84;98677.81;5008650;28;19925;-73
2023/08/26 01:22:02;;;;;;;;;;;;;;;26.25;44.73;98679.69;4993319;28;19920;-73
2023/08/26 01:24:27;;;;;;;;;;;;;;;26.27;45.15;98674.94;4992222;28;19983;-74
2023/08/26 01:26:53;;;;;;;;;;;;;;;26.31;45.01;98686.00;5008956;28;20376;-73
2023/08/26 01:29:18;;;;;;;;;;;;;;;26.31;45.04;98686.84;5008935;28;20479;-74
2023/08/26 01:31:44;;;;;;;;;;;;;;;26.24;45.06;98687.94;5008521;28;19920;-73
2023/08/26 01:34:14;;;;;;;;;;;;;;;26.22;45.12;98692.66;5008385;28;20288;-73
2023/08/26 01:36:41;;;;;;;;;;;;;;;26.16;45.17;98689.84;5008035;28;19918;-73
2023/08/26 01:39:07;;;;;;;;;;;;;;;26.14;45.02;98681.22;4991750;28;20508;-73
2023/08/26 01:41:32;;;;;;;;;;;;;;;26.16;44.88;98683.69;4991856;28;20012;-73
2023/08/26 01:43:57;;;;;;;;;;;;;;;26.11;45.18;98684.34;5007388;28;20027;-73
2023/08/26 01:46:36;;;;;;;;;;;;;;;26.02;45.21;98679.50;4991738;28;19913;-73
2023/08/26 01:49:01;;;;;;;;;;;;;;;26.02;45.58;98674.16;4990549;28;19965;-73
2023/08/26 01:51:27;;;;;;;;;;;;;;;26.00;45.72;98674.38;4991732;28;19965;-75
2023/08/26 01:53:52;;;;;;;;;;;;;;;25.97;45.67;98672.13;4991547;28;20008;-74
2023/08/26 01:56:17;;;;;;;;;;;;;;;25.97;45.43;98674.78;4992715;28;19917;-73
2023/08/26 01:58:43;;;;;;;;;;;;;;;25.97;45.30;98667.59;4991471;28;19922;-73
2023/08/26 02:01:08;;;;;;;;;;;;;;;25.99;45.41;98664.69;4991372;28;19921;-73
2023/08/26 02:03:33;;;;;;;;;;;;;;;26.00;45.88;98653.78;4991606;28;20017;-73
2023/08/26 02:05:58;;;;;;;;;;;;;;;26.00;45.53;98643.06;4991496;28;20369;-74
2023/08/26 02:08:24;;;;;;;;;;;;;;;26.07;45.74;98644.88;4991646;28;19936;-73
2023/08/26 02:10:53;;;;;;;;;;;;;;;26.08;46.03;98658.03;4991737;28;19920;-73
2023/08/26 02:13:18;;;;;;;;;;;;;;;26.01;46.34;98662.59;5007629;28;19918;-73
2023/08/26 02:15:44;;;;;;;;;;;;;;;25.99;46.31;98672.72;4991366;28;19921;-73
2023/08/26 02:18:09;;;;;;;;;;;;;;;25.94;46.11;98676.00;4992460;28;19920;-72
2023/08/26 02:20:34;;;;;;;;;;;;;;;25.91;45.82;98673.78;5007817;28;19913;-73
2023/08/26 02:22:59;;;;;;;;;;;;;;;25.94;46.37;98664.50;4991146;28;19913;-72
2023/08/26 02:25:25;;;;;;;;;;;;;;;25.91;46.17;98670.28;4992224;28;20488;-73
2023/08/26 02:27:50;;;;;;;;;;;;;;;25.90;46.40;98671.31;4991368;28;19913;-73
2023/08/26 02:30:15;;;;;;;;;;;;;;;25.91;46.32;98667.63;4991033;28;19917;-73
2023/08/26 02:32:41;;;;;;;;;;;;;;;25.91;46.11;98662.25;4991183;28;19921;-73
2023/08/26 02:35:06;;;;;;;;;;;;;;;25.85;46.53;98668.47;4990942;28;19979;-73
2023/08/26 02:37:31;;;;;;;;;;;;;;;25.77;46.95;98670.38;4991066;28;19976;-73
2023/08/26 02:39:57;;;;;;;;;;;;;;;25.69;46.72;98667.97;4991146;28;19914;-74
2023/08/26 02:42:22;;;;;;;;;;;;;;;25.61;47.09;98671.72;4991071;28;19914;-73
2023/08/26 02:44:47;;;;;;;;;;;;;;;25.57;46.80;98670.53;4991025;28;19913;-73
2023/08/26 02:47:13;;;;;;;;;;;;;;;25.54;46.31;98660.28;4992136;28;19985;-73
2023/08/26 02:49:38;;;;;;;;;;;;;;;25.50;46.42;98659.06;4991972;28;19914;-73
2023/08/26 02:52:03;;;;;;;;;;;;;;;25.45;46.58;98658.91;4990751;28;19913;-73
2023/08/26 02:54:29;;;;;;;;;;;;;;;25.42;46.36;98659.31;5007041;28;20283;-73
2023/08/26 02:56:54;;;;;;;;;;;;;;;25.38;46.71;98658.94;4990866;28;20340;-72
2023/08/26 02:59:20;;;;;;;;;;;;;;;25.34;46.64;98660.41;4992051;28;19913;-73
2023/08/26 03:01:45;;;;;;;;;;;;;;;25.33;46.84;98664.09;5009809;28;20004;-73
2023/08/26 03:04:10;;;;;;;;;;;;;;;25.36;46.57;98662.84;4994659;28;19917;-73
2023/08/26 03:06:36;;;;;;;;;;;;;;;25.32;47.01;98657.13;4995859;28;20012;-72
2023/08/26 03:09:02;;;;;;;;;;;;;;;25.28;46.53;98664.72;4994458;28;19914;-72
2023/08/26 03:11:27;;;;;;;;;;;;;;;25.23;46.66;98669.88;4994507;28;19914;-72
2023/08/26 03:13:53;;;;;;;;;;;;;;;25.24;46.96;98660.03;5010693;28;19918;-73
2023/08/26 03:16:18;;;;;;;;;;;;;;;25.21;46.92;98671.13;4994480;28;20321;-73
2023/08/26 03:18:43;;;;;;;;;;;;;;;25.18;46.67;98667.03;4995689;28;19913;-73
2023/08/26 03:21:09;;;;;;;;;;;;;;;25.16;46.54;98662.94;4995642;28;20012;-73
2023/08/26 03:23:34;;;;;;;;;;;;;;;25.16;46.88;98673.59;4994977;28;19914;-72
2023/08/26 03:26:00;;;;;;;;;;;;;;;25.18;47.46;98672.38;4994292;28;19925;-73
2023/08/26 03:28:25;;;;;;;;;;;;;;;25.25;46.82;98672.34;4994233;28;19914;-73
2023/08/26 03:30:50;;;;;;;;;;;;;;;25.26;46.58;98674.78;4994428;28;20308;-72
2023/08/26 03:33:16;;;;;;;;;;;;;;;25.23;46.64;98674.41;4994050;28;19940;-74
2023/08/26 03:35:41;;;;;;;;;;;;;;;25.19;46.20;98675.84;4994158;28;19917;-73
2023/08/26 03:38:06;;;;;;;;;;;;;;;25.14;46.22;98681.03;4994031;28;19957;-73
2023/08/26 03:40:32;;;;;;;;;;;;;;;25.10;46.47;98676.09;4994210;28;19996;-73
2023/08/26 03:42:57;;;;;;;;;;;;;;;25.18;46.07;98684.91;4995321;28;19921;-73
2023/08/26 03:45:22;;;;;;;;;;;;;;;25.25;45.92;98675.00;4994202;28;19917;-73
2023/08/26 03:47:48;;;;;;;;;;;;;;;25.31;45.93;98678.72;4994073;28;19914;-73
2023/08/26 03:50:13;;;;;;;;;;;;;;;25.53;45.34;98684.53;4993901;28;19956;-73
2023/08/26 03:52:38;;;;;;;;;;;;;;;25.73;44.99;98682.56;4993656;28;19914;-74
2023/08/26 03:55:04;;;;;;;;;;;;;;;25.93;44.84;98682.38;4993719;28;19917;-73
2023/08/26 03:57:29;;;;;;;;;;;;;;;26.10;44.38;98684.56;4977460;28;19920;-73
2023/08/26 03:59:55;;;;;;;;;;;;;;;26.33;43.45;98674.06;4977369;28;19924;-73
2023/08/26 04:02:20;;;;;;;;;;;;;;;26.58;42.64;98683.06;4993148;28;20442;-73
2023/08/26 04:04:45;;;;;;;;;;;;;;;26.83;42.55;98681.16;4993509;28;19921;-74
2023/08/26 04:07:11;;;;;;;;;;;;;;;27.09;41.79;98681.88;4994740;28;19913;-74
2023/08/26 04:09:36;;;;;;;;;;;;;;;27.49;41.03;98683.22;4977517;28;20332;-74
2023/08/26 04:12:02;;;;;;;;;;;;;;;27.86;40.59;98683.88;4993574;28;20019;-73
2023/08/26 04:14:28;;;;;;;;;;;;;;;28.22;39.79;98684.75;4993063;28;19928;-75
2023/08/26 04:16:53;;;;;;;;;;;;;;;28.53;39.00;98682.78;4976933;28;19917;-74
2023/08/26 04:19:18;;;;;;;;;;;;;;;29.10;38.03;98679.41;4993208;28;19917;-77
2023/08/26 04:21:44;;;;;;;;;;;;;;;29.54;37.15;98689.63;4976791;28;19975;-74
2023/08/26 04:24:09;;;;;;;;;;;;;;;29.91;36.78;98683.81;4993236;28;20381;-77
2023/08/26 04:26:35;;;;;;;;;;;;;;;30.48;35.83;98686.31;4977005;28;19920;-76
2023/08/26 04:29:00;;;;;;;;;;;;;;;31.07;34.95;98695.69;4976793;28;19914;-80
2023/08/26 04:31:25;;;;;;;;;;;;;;;31.71;33.78;98688.81;4993256;28;19918;-81
2023/08/26 04:33:51;;;;;;;;;;;;;;;32.23;32.96;98688.16;4994208;28;19914;-82
2023/08/26 04:36:16;;;;;;;;;;;;;;;32.79;32.23;98697.66;4992790;28;20000;-81
2023/08/26 04:38:42;;;;;;;;;;;;;;;33.39;31.30;98695.44;4991274;28;19914;-82
2023/08/26 04:41:09;;;;;;;;;;;;;;;34.02;30.51;98702.53;4993031;28;19917;-83
2023/08/26 04:43:35;;;;;;;;;;;;;;;34.63;29.60;98688.06;5009433;28;19929;-81
2023/08/26 04:46:00;;;;;;;;;;;;;;;35.13;28.91;98694.38;4994051;28;19914;-83
2023/08/26 04:48:28;;;;;;;;;;;;;;;35.74;27.84;98697.81;4992811;28;19996;-82
2023/08/26 04:50:53;;;;;;;;;;;;;;;36.23;27.01;98699.56;4992556;28;19918;-81
2023/08/26 04:53:19;;;;;;;;;;;;;;;36.77;26.54;98699.59;4992678;28;19913;-82
2023/08/26 04:55:44;;;;;;;;;;;;;;;37.22;25.93;98697.38;4992455;28;20012;-82
2023/08/26 04:58:09;;;;;;;;;;;;;;;37.65;25.42;98704.63;4992551;28;19914;-81
2023/08/26 05:00:36;;;;;;;;;;;;;;;38.07;24.85;98702.88;4992523;28;19913;-82
2023/08/26 05:03:02;;;;;;;;;;;;;;;38.45;24.48;98710.13;4992405;28;19920;-82
2023/08/26 05:05:27;;;;;;;;;;;;;;;38.80;24.25;98708.63;4991133;28;19914;-83
2023/08/26 05:07:52;;;;;;;;;;;;;;;39.10;23.95;98706.38;4992606;28;20384;-84
2023/08/26 05:10:17;;;;;;;;;;;;;;;39.36;23.55;98695.69;4992317;28;19914;-85
2023/08/26 05:12:43;;;;;;;;;;;;;;;39.83;23.15;98705.53;4990097;28;19920;-81
2023/08/26 05:15:08;;;;;;;;;;;;;;;40.07;23.05;98699.75;5000812;28;19918;-83
2023/08/26 05:17:34;;;;;;;;;;;;;;;40.46;22.62;98698.19;4991505;28;19918;-83
2023/08/26 05:19:59;;;;;;;;;;;;;;;40.13;22.53;98695.75;4999709;28;19922;-82
2023/08/26 05:22:24;;;;;;;;;;;;;;;39.39;23.42;98702.44;4989386;28;20004;-80
2023/08/26 05:24:49;;;;;;;;;;;;;;;39.63;23.29;98693.97;4990627;28;19964;-82
2023/08/26 05:27:15;;;;;;;;;;;;;;;40.21;23.09;98702.38;4991008;28;19957;-80
2023/08/26 05:29:40;;;;;;;;;;;;;;;40.68;22.58;98700.81;4992461;28;19914;-82
2023/08/26 05:32:06;;;;;;;;;;;;;;;41.14;22.04;98704.16;4992193;28;19940;-78
2023/08/26 05:34:31;;;;;;;;;;;;;;;41.52;21.56;98700.00;4991653;28;19918;-79
2023/08/26 05:36:57;;;;;;;;;;;;;;;41.85;21.43;98704.97;4991778;28;19922;-80
2023/08/26 05:39:22;;;;;;;;;;;;;;;42.10;20.13;98715.06;4992131;28;19921;-86
2023/08/26 05:41:47;;;;;;;;;;;;;;;42.29;19.22;98714.69;4991941;28;20369;-79
2023/08/26 05:44:13;;;;;;;;;;;;;;;42.64;19.38;98713.75;4991788;28;20003;-80
2023/08/26 05:46:38;;;;;;;;;;;;;;;43.04;17.64;98718.88;4990260;28;19918;-84
2023/08/26 05:49:03;;;;;;;;;;;;;;;43.37;17.61;98713.44;4987634;28;19925;-78
2023/08/26 05:51:29;;;;;;;;;;;;;;;43.59;17.26;98713.44;4990048;28;19939;-81
2023/08/26 05:53:54;;;;;;;;;;;;;;;43.84;17.01;98712.41;4976216;28;19913;-87
2023/08/26 05:56:19;;;;;;;;;;;;;;;43.97;17.60;98715.19;4993637;28;19924;-83
2023/08/26 05:58:45;;;;;;;;;;;;;;;44.00;16.75;98711.75;4993425;28;19988;-84
2023/08/26 06:01:10;;;;;;;;;;;;;;;44.20;17.19;98710.09;4997174;28;19913;-84
2023/08/26 06:03:35;;;;;;;;;;;;;;;44.37;16.61;98706.31;4992936;28;19956;-84
2023/08/26 06:06:01;;;;;;;;;;;;;;;44.33;17.03;98710.91;4976965;28;19920;-83
2023/08/26 06:08:26;;;;;;;;;;;;;;;44.37;16.96;98712.63;4976394;28;20300;-81
2023/08/26 06:10:55;;;;;;;;;;;;;;;44.59;16.50;98716.09;4976626;28;19963;-79
2023/08/26 06:13:20;;;;;;;;;;;;;;;44.59;17.50;98725.16;5000916;28;19991;-86
2023/08/26 06:15:45;;;;;;;;;;;;;;;44.54;16.71;98724.56;4991584;28;20428;-83
2023/08/26 06:18:11;;;;;;;;;;;;;;;44.62;16.58;98724.47;4993639;28;19914;-82
2023/08/26 06:20:36;;;;;;;;;;;;;;;44.75;16.74;98722.50;4992938;28;20373;-86
2023/08/26 06:23:02;;;;;;;;;;;;;;;44.86;16.10;98725.59;4992539;28;20012;-84
2023/08/26 06:25:27;;;;;;;;;;;;;;;44.86;16.37;98724.78;4993011;28;20392;-82
2023/08/26 06:27:53;;;;;;;;;;;;;;;45.08;16.39;98723.53;4977297;28;19913;-86
2023/08/26 06:30:18;;;;;;;;;;;;;;;45.14;16.01;98728.44;4993217;28;19918;-78
2023/08/26 06:32:44;;;;;;;;;;;;;;;45.11;16.17;98728.34;5010059;28;19968;-86
2023/08/26 06:35:10;;;;;;;;;;;;;;;45.18;15.84;98730.50;4993536;28;19922;-85
2023/08/26 06:37:36;;;;;;;;;;;;;;;45.21;15.68;98735.31;4994268;28;20340;-82
2023/08/26 06:40:03;;;;;;;;;;;;;;;45.30;15.58;98741.47;4992832;28;19914;-85
2023/08/26 06:42:28;;;;;;;;;;;;;;;45.31;15.28;98743.88;5008765;28;19917;-84
2023/08/26 06:44:54;;;;;;;;;;;;;;;45.24;15.86;98746.41;4994456;28;19971;-85
2023/08/26 06:47:19;;;;;;;;;;;;;;;45.20;15.69;98741.97;4995118;28;20008;-82
2023/08/26 06:49:45;;;;;;;;;;;;;;;45.18;15.71;98741.50;4990798;28;19917;-76
2023/08/26 06:52:10;;;;;;;;;;;;;;;45.30;14.28;98747.78;4992318;28;19914;-81
2023/08/26 06:54:35;;;;;;;;;;;;;;;45.29;14.71;98742.63;4991647;28;19940;-77
2023/08/26 06:57:01;;;;;;;;;;;;;;;45.26;14.68;98741.38;4992385;28;20439;-78
2023/08/26 06:59:26;;;;;;;;;;;;;;;45.30;14.24;98741.47;4991522;28;19930;-81
2023/08/26 07:01:52;;;;;;;;;;;;;;;45.22;14.63;98742.44;4990812;28;19918;-77
2023/08/26 07:04:17;;;;;;;;;;;;;;;45.29;15.17;98746.16;4991917;28;19914;-86
2023/08/26 07:06:42;;;;;;;;;;;;;;;45.34;14.88;98747.88;4991609;28;19920;-79
2023/08/26 07:09:10;;;;;;;;;;;;;;;45.54;15.09;98745.34;4991857;28;19976;-77
2023/08/26 07:11:35;;;;;;;;;;;;;;;45.51;14.60;98747.63;4992295;28;20016;-79
2023/08/26 07:14:01;;;;;;;;;;;;;;;45.53;15.02;98749.22;4993076;28;19969;-82
2023/08/26 07:16:26;;;;;;;;;;;;;;;45.38;15.39;98748.81;4991412;28;19976;-74
2023/08/26 07:18:51;;;;;;;;;;;;;;;44.94;15.22;98752.19;4993203;28;20395;-80
2023/08/26 07:21:17;;;;;;;;;;;;;;;44.73;15.54;98751.53;4993895;28;19913;-77
2023/08/26 07:23:42;;;;;;;;;;;;;;;44.82;15.68;98754.97;4993371;28;20434;-78
2023/08/26 07:26:07;;;;;;;;;;;;;;;44.92;15.22;98754.50;4992728;28;19914;-78
2023/08/26 07:28:32;;;;;;;;;;;;;;;44.90;14.81;98750.47;4991175;28;19918;-87
2023/08/26 07:31:01;;;;;;;;;;;;;;;44.97;15.14;98747.94;4973999;28;19918;-77
2023/08/26 07:33:27;;;;;;;;;;;;;;;45.06;14.92;98742.34;4991316;28;20016;-77
2023/08/26 07:35:52;;;;;;;;;;;;;;;45.12;15.06;98744.50;4988946;28;20008;-79
2023/08/26 07:38:17;;;;;;;;;;;;;;;45.25;14.08;98744.50;4988670;28;19918;-76
2023/08/26 07:40:42;;;;;;;;;;;;;;;45.13;14.56;98746.09;4991057;28;19910;-80
2023/08/26 07:43:08;;;;;;;;;;;;;;;45.19;14.55;98752.19;4991238;28;20317;-78
2023/08/26 07:45:33;;;;;;;;;;;;;;;45.34;13.77;98745.13;4986906;28;20378;-79
2023/08/26 07:47:58;;;;;;;;;;;;;;;45.23;14.24;98742.09;4974964;28;20403;-78
2023/08/26 07:50:24;;;;;;;;;;;;;;;45.23;14.35;98747.59;4977745;28;20370;-79
2023/08/26 07:52:49;;;;;;;;;;;;;;;45.26;15.06;98744.13;4976066;28;19917;-77
2023/08/26 07:55:14;;;;;;;;;;;;;;;45.20;14.69;98745.53;4975653;28;19953;-80
2023/08/26 07:57:40;;;;;;;;;;;;;;;45.28;15.23;98747.34;4991585;28;20286;-80
2023/08/26 08:00:06;;;;;;;;;;;;;;;45.37;14.59;98747.19;4992437;28;19921;-82
2023/08/26 08:02:31;;;;;;;;;;;;;;;45.48;13.82;98745.59;4992826;28;19924;-80
2023/08/26 08:04:57;;;;;;;;;;;;;;;45.47;13.53;98740.44;4995310;28;19956;-83
2023/08/26 08:07:22;;;;;;;;;;;;;;;45.53;13.06;98743.72;5010440;28;19971;-77
2023/08/26 08:09:47;;;;;;;;;;;;;;;45.63;13.39;98746.00;4994389;28;19914;-85
2023/08/26 08:12:14;;;;;;;;;;;;;;;45.71;13.60;98745.03;4993804;28;19976;-77
2023/08/26 08:14:40;;;;;;;;;;;;;;;45.76;13.51;98735.69;5010572;28;20073;-82
2023/08/26 08:17:05;;;;;;;;;;;;;;;45.80;13.32;98740.19;4993525;28;20062;-76
2023/08/26 08:19:30;;;;;;;;;;;;;;;45.91;13.75;98739.66;4994960;28;19920;-86
2023/08/26 08:21:56;;;;;;;;;;;;;;;45.90;14.27;98730.59;4994555;28;19917;-77
2023/08/26 08:24:21;;;;;;;;;;;;;;;45.91;13.83;98737.72;5011449;28;19985;-85
2023/08/26 08:26:46;;;;;;;;;;;;;;;45.97;13.21;98730.75;4994375;28;19921;-79
2023/08/26 08:29:12;;;;;;;;;;;;;;;45.94;14.42;98731.47;4993928;28;20308;-79
2023/08/26 08:31:37;;;;;;;;;;;;;;;45.86;13.91;98724.16;4993815;28;19937;-78
2023/08/26 08:34:03;;;;;;;;;;;;;;;45.96;13.61;98729.19;4994713;28;19929;-81
2023/08/26 08:36:29;;;;;;;;;;;;;;;45.84;13.83;98727.28;4993873;28;19918;-76
2023/08/26 08:38:54;;;;;;;;;;;;;;;45.86;13.47;98729.69;4993779;28;19988;-82
2023/08/26 08:41:20;;;;;;;;;;;;;;;45.83;14.02;98722.94;5010229;28;20016;-77
2023/08/26 08:43:45;;;;;;;;;;;;;;;45.81;13.35;98721.69;4993365;28;19913;-80
2023/08/26 08:46:12;;;;;;;;;;;;;;;45.83;14.16;98717.44;4993576;28;19914;-76
2023/08/26 08:48:37;;;;;;;;;;;;;;;45.57;13.47;98728.88;4993865;28;20377;-75
